createdAt,value
2022-08-22T00:02:48.063Z,27.82
2022-08-22T00:02:54.798Z,27.82
2022-08-22T00:04:57.940Z,27.76
2022-08-22T00:09:54.132Z,27.59
2022-08-22T00:14:47.255Z,27.65
2022-08-22T00:19:51.913Z,27.62
2022-08-22T00:25:25.419Z,27.52
2022-08-22T00:30:39.380Z,27.11
2022-08-22T00:36:09.496Z,27.38
2022-08-22T00:41:28.143Z,27.47
2022-08-22T00:47:05.871Z,27.69
2022-08-22T00:52:16.373Z,27.68
2022-08-22T00:57:12.727Z,27.71
2022-08-22T01:02:43.849Z,27.77
2022-08-22T01:07:51.652Z,27.79
2022-08-22T01:12:59.030Z,27.82
2022-08-22T01:18:16.755Z,27.85
2022-08-22T01:23:46.803Z,27.88
2022-08-22T01:29:03.565Z,27.97
2022-08-22T01:34:36.370Z,28.02
2022-08-22T01:39:37.663Z,28.02
2022-08-22T01:44:44.501Z,28.02
2022-08-22T01:50:22.073Z,27.88
2022-08-22T01:55:27.759Z,28.01
2022-08-22T02:00:34.703Z,27.93
2022-08-22T02:05:39.319Z,27.99
2022-08-22T02:11:00.415Z,28.00
2022-08-22T02:16:27.680Z,28.00
2022-08-22T02:21:33.621Z,28.00
2022-08-22T02:26:50.539Z,27.99
2022-08-22T02:32:14.703Z,27.98
2022-08-22T02:37:10.638Z,27.98
2022-08-22T02:42:29.290Z,27.97
2022-08-22T02:47:47.503Z,27.99
2022-08-22T02:53:17.487Z,28.00
2022-08-22T02:58:13.565Z,28.01
2022-08-22T03:03:20.212Z,28.00
2022-08-22T03:08:24.385Z,27.99
2022-08-22T03:13:27.331Z,27.98
2022-08-22T03:18:38.961Z,28.00
2022-08-22T03:23:35.951Z,27.93
2022-08-22T03:28:59.471Z,27.99
2022-08-22T03:34:32.596Z,28.00
2022-08-22T03:39:58.511Z,27.99
2022-08-22T03:44:56.978Z,27.98
2022-08-22T03:50:18.136Z,27.97
2022-08-22T03:55:14.748Z,27.98
2022-08-22T04:00:56.709Z,27.87
2022-08-22T04:06:12.631Z,27.97
2022-08-22T04:11:09.367Z,27.97
2022-08-22T04:16:38.105Z,27.96
2022-08-22T04:21:49.559Z,27.94
2022-08-22T04:26:56.693Z,27.96
2022-08-22T04:32:03.781Z,27.79
2022-08-22T04:37:25.943Z,27.82
2022-08-22T04:42:38.198Z,27.80
2022-08-22T04:47:37.109Z,27.90
2022-08-22T04:52:50.066Z,27.90
2022-08-22T04:58:12.658Z,27.89
2022-08-22T05:03:16.761Z,27.68
2022-08-22T05:08:32.732Z,27.88
2022-08-22T05:13:44.656Z,27.75
2022-08-22T05:18:53.701Z,27.76
2022-08-22T05:24:17.753Z,27.86
2022-08-22T05:29:14.324Z,27.83
2022-08-22T05:34:39.387Z,27.52
2022-08-22T05:39:41.868Z,27.23
2022-08-22T05:44:38.927Z,27.15
2022-08-22T05:49:49.467Z,27.31
2022-08-22T05:54:53.395Z,27.19
2022-08-22T05:59:54.739Z,27.10
2022-08-22T06:05:01.395Z,27.18
2022-08-22T06:10:26.502Z,27.39
2022-08-22T06:15:39.987Z,27.51
2022-08-22T06:21:10.297Z,27.53
2022-08-22T06:26:06.296Z,27.45
2022-08-22T06:31:37.141Z,27.53
2022-08-22T06:36:34.092Z,27.42
2022-08-22T06:41:31.679Z,27.53
2022-08-22T06:46:28.374Z,27.55
2022-08-22T06:51:24.270Z,27.47
2022-08-22T06:56:34.675Z,27.46
2022-08-22T07:01:45.362Z,27.50
2022-08-22T07:06:50.553Z,27.51
2022-08-22T07:11:44.750Z,27.50
2022-08-22T07:16:46.091Z,27.59
2022-08-22T07:21:47.034Z,27.52
2022-08-22T07:26:47.767Z,27.55
2022-08-22T07:31:50.903Z,27.58
2022-08-22T07:37:22.008Z,27.57
2022-08-22T07:42:28.632Z,27.63
2022-08-22T07:47:27.284Z,27.61
2022-08-22T07:52:22.260Z,27.62
2022-08-22T07:57:37.743Z,27.65
2022-08-22T08:02:32.406Z,27.64
2022-08-22T08:07:28.944Z,27.65
2022-08-22T08:12:38.416Z,27.67
2022-08-22T08:17:34.646Z,27.53
2022-08-22T08:22:28.627Z,27.56
2022-08-22T08:27:50.127Z,27.58
2022-08-22T08:32:49.144Z,27.67
2022-08-22T08:37:49.395Z,27.70
2022-08-22T08:43:25.400Z,27.75
2022-08-22T08:48:44.725Z,27.79
2022-08-22T08:53:59.479Z,27.80
2022-08-22T08:59:10.223Z,27.80
2022-08-22T09:04:17.178Z,27.81
2022-08-22T09:09:31.055Z,27.83
2022-08-22T09:14:44.351Z,27.81
2022-08-22T09:19:56.791Z,27.82
2022-08-22T09:24:49.979Z,27.83
2022-08-22T09:29:54.537Z,27.82
2022-08-22T09:34:59.731Z,27.82
2022-08-22T09:40:01.381Z,27.82
2022-08-22T09:45:38.966Z,27.83
2022-08-22T09:51:13.490Z,27.82
2022-08-22T09:56:21.461Z,27.83
2022-08-22T10:01:19.175Z,27.84
2022-08-22T10:06:23.132Z,27.82
2022-08-22T10:11:26.422Z,27.83
2022-08-22T10:16:27.698Z,27.84
2022-08-22T10:21:25.203Z,27.85
2022-08-22T10:26:22.597Z,27.85
2022-08-22T10:31:58.367Z,27.77
2022-08-22T10:37:03.864Z,27.85
2022-08-22T10:42:28.202Z,27.82
2022-08-22T10:47:38.718Z,27.65
2022-08-22T10:52:39.192Z,27.82
2022-08-22T10:57:43.511Z,27.68
2022-08-22T11:02:53.095Z,27.76
2022-08-22T11:07:48.917Z,27.75
2022-08-22T11:13:07.835Z,27.82
2022-08-22T11:18:27.101Z,27.79
2022-08-22T11:23:42.454Z,27.80
2022-08-22T11:28:55.863Z,27.76
2022-08-22T11:34:07.329Z,27.81
2022-08-22T11:39:18.417Z,27.61
2022-08-22T11:45:00.524Z,27.78
2022-08-22T11:50:24.565Z,27.71
2022-08-22T11:55:23.765Z,27.72
2022-08-22T12:00:17.656Z,27.71
2022-08-22T12:05:24.583Z,27.63
2022-08-22T12:10:30.996Z,27.70
2022-08-22T12:15:46.932Z,27.78
2022-08-22T12:21:04.980Z,27.73
2022-08-22T12:26:22.264Z,27.77
2022-08-22T12:31:20.975Z,27.73
2022-08-22T12:36:39.062Z,27.75
2022-08-22T12:42:04.278Z,27.76
2022-08-22T12:47:19.986Z,27.74
2022-08-22T12:52:31.262Z,27.76
2022-08-22T12:57:43.313Z,27.73
2022-08-22T13:02:39.888Z,27.74
2022-08-22T13:07:39.191Z,27.77
2022-08-22T13:12:44.112Z,27.65
2022-08-22T13:17:39.000Z,27.77
2022-08-22T13:22:36.088Z,27.79
2022-08-22T13:27:51.289Z,27.64
2022-08-22T13:32:52.774Z,27.71
2022-08-22T13:37:50.655Z,27.65
2022-08-22T13:43:02.066Z,27.81
2022-08-22T13:48:03.775Z,27.60
2022-08-22T13:53:02.453Z,27.81
2022-08-22T13:58:06.956Z,27.82
2022-08-22T14:03:32.893Z,27.85
2022-08-22T14:08:49.079Z,27.85
2022-08-22T14:14:00.109Z,27.85
2022-08-22T14:18:57.927Z,27.82
2022-08-22T14:24:07.061Z,27.84
2022-08-22T14:29:04.886Z,27.85
2022-08-22T14:34:11.054Z,27.90
2022-08-22T14:39:21.875Z,27.88
2022-08-22T14:44:44.881Z,27.93
2022-08-22T14:49:49.924Z,27.92
2022-08-22T14:54:50.918Z,27.91
2022-08-22T14:59:44.282Z,27.93
2022-08-22T15:04:44.344Z,27.81
2022-08-22T15:09:37.594Z,27.97
2022-08-22T15:14:36.662Z,27.94
2022-08-22T15:19:36.763Z,27.93
2022-08-22T15:24:39.662Z,27.84
2022-08-22T15:29:49.336Z,27.74
2022-08-22T15:34:52.459Z,27.76
2022-08-22T15:40:08.564Z,28.00
2022-08-22T15:45:05.176Z,27.88
2022-08-22T15:50:05.563Z,28.00
2022-08-22T15:55:23.292Z,27.94
2022-08-22T16:01:03.472Z,28.02
2022-08-22T16:06:05.272Z,28.03
2022-08-22T16:11:03.372Z,28.05
2022-08-22T16:16:04.918Z,28.03
2022-08-22T16:20:58.050Z,28.03
2022-08-22T16:25:52.276Z,27.92
2022-08-22T16:30:46.773Z,27.88
2022-08-22T16:36:17.492Z,28.03
2022-08-22T16:41:35.253Z,28.11
2022-08-22T16:46:38.707Z,28.19
2022-08-22T16:51:32.832Z,28.17
2022-08-22T16:56:55.510Z,28.25
2022-08-22T17:02:19.898Z,28.28
2022-08-22T17:07:16.046Z,28.39
2022-08-22T17:12:45.846Z,28.44
2022-08-22T17:18:12.235Z,28.43
2022-08-22T17:23:38.414Z,28.44
2022-08-22T17:28:43.469Z,28.49
2022-08-22T17:33:41.846Z,28.55
2022-08-22T17:38:55.944Z,28.56
2022-08-22T17:44:23.296Z,28.61
2022-08-22T17:49:35.831Z,28.54
2022-08-22T17:54:49.495Z,28.65
2022-08-22T18:00:13.202Z,28.60
2022-08-22T18:05:08.794Z,28.70
2022-08-22T18:10:06.684Z,28.66
2022-08-22T18:15:26.229Z,28.70
2022-08-22T18:20:26.293Z,28.76
2022-08-22T18:25:19.151Z,28.78
2022-08-22T18:30:11.996Z,28.64
2022-08-22T18:35:17.528Z,28.83
2022-08-22T18:40:45.535Z,28.81
2022-08-22T18:45:46.099Z,28.81
2022-08-22T18:50:40.144Z,28.74
2022-08-22T18:56:04.597Z,28.72
2022-08-22T19:01:08.804Z,28.54
2022-08-22T19:06:22.866Z,28.67
2022-08-22T19:11:23.412Z,28.66
2022-08-22T19:16:45.080Z,28.69
2022-08-22T19:21:57.172Z,28.59
2022-08-22T19:27:10.619Z,28.54
2022-08-22T19:32:12.783Z,28.54
2022-08-22T19:37:30.695Z,28.49
2022-08-22T19:42:27.632Z,28.42
2022-08-22T19:47:24.824Z,28.52
2022-08-22T19:52:30.046Z,28.58
2022-08-22T19:57:47.573Z,28.42
2022-08-22T20:02:59.560Z,28.43
2022-08-22T20:08:34.789Z,28.40
2022-08-22T20:13:32.475Z,28.31
2022-08-22T20:19:07.828Z,28.35
2022-08-22T20:24:12.598Z,28.00
2022-08-22T20:29:08.125Z,26.89
2022-08-22T20:34:09.235Z,26.23
2022-08-22T20:39:16.329Z,25.89
2022-08-22T20:44:22.484Z,26.34
2022-08-22T20:49:29.528Z,26.40
2022-08-22T20:54:26.348Z,26.36
2022-08-22T20:59:37.842Z,26.54
2022-08-22T21:04:58.287Z,26.26
2022-08-22T21:10:22.564Z,26.34
2022-08-22T21:15:30.455Z,26.29
2022-08-22T21:20:24.696Z,26.63
2022-08-22T21:25:18.210Z,26.83
2022-08-22T21:30:22.035Z,26.89
2022-08-22T21:35:55.501Z,27.18
2022-08-22T21:40:48.669Z,27.28
2022-08-22T21:45:46.006Z,27.22
2022-08-22T21:50:42.121Z,27.45
2022-08-22T21:55:43.922Z,27.50
2022-08-22T22:00:49.447Z,27.60
2022-08-22T22:05:44.540Z,27.68
2022-08-22T22:10:40.437Z,27.61
2022-08-22T22:15:40.695Z,27.81
2022-08-22T22:20:35.033Z,27.85
2022-08-22T22:25:40.973Z,27.73
2022-08-22T22:30:42.127Z,27.82
2022-08-22T22:35:35.271Z,27.84
2022-08-22T22:40:29.723Z,27.88
2022-08-22T22:45:23.522Z,27.90
2022-08-22T22:50:18.449Z,28.00
2022-08-22T22:55:12.789Z,28.01
2022-08-22T23:00:18.996Z,28.00
2022-08-22T23:05:12.756Z,27.97
2022-08-22T23:10:08.023Z,28.03
2022-08-22T23:15:01.070Z,27.95
2022-08-22T23:19:54.503Z,27.98
2022-08-22T23:24:50.929Z,27.93
2022-08-22T23:29:44.516Z,27.98
2022-08-22T23:34:43.413Z,28.08
2022-08-22T23:39:39.122Z,27.98
2022-08-22T23:44:36.943Z,27.90
2022-08-22T23:49:31.059Z,28.14
2022-08-22T23:54:25.592Z,28.15
2022-08-22T23:59:21.495Z,28.06
